sensor_id;sensor_type;location;lat;lon;timestamp;P1;durP1;ratioP1;P2;durP2;ratioP2
30571;SDS011;17348;50.948;10.696;2023-04-01T00:02:07;2.28;;;0.85;;
30571;SDS011;17348;50.948;10.696;2023-04-01T00:05:10;4.82;;;0.60;;
30571;SDS011;17348;50.948;10.696;2023-04-01T00:08:13;2.72;;;0.82;;
30571;SDS011;17348;50.948;10.696;2023-04-01T00:11:17;9.18;;;0.82;;
30571;SDS011;17348;50.948;10.696;2023-04-01T00:14:19;9.63;;;1.23;;
30571;SDS011;17348;50.948;10.696;2023-04-01T00:17:21;2.72;;;0.80;;
30571;SDS011;17348;50.948;10.696;2023-04-01T00:20:24;4.45;;;0.80;;
30571;SDS011;17348;50.948;10.696;2023-04-01T00:23:26;7.00;;;1.25;;
30571;SDS011;17348;50.948;10.696;2023-04-01T00:26:30;7.75;;;1.35;;
30571;SDS011;17348;50.948;10.696;2023-04-01T00:29:32;3.78;;;0.85;;
30571;SDS011;17348;50.948;10.696;2023-04-01T00:32:35;5.18;;;1.00;;
30571;SDS011;17348;50.948;10.696;2023-04-01T00:35:39;11.73;;;1.33;;
30571;SDS011;17348;50.948;10.696;2023-04-01T00:38:42;2.72;;;0.73;;
30571;SDS011;17348;50.948;10.696;2023-04-01T00:41:46;3.22;;;0.75;;
30571;SDS011;17348;50.948;10.696;2023-04-01T00:44:50;4.68;;;0.85;;
30571;SDS011;17348;50.948;10.696;2023-04-01T00:47:53;4.15;;;0.75;;
30571;SDS011;17348;50.948;10.696;2023-04-01T00:50:58;9.15;;;1.17;;
30571;SDS011;17348;50.948;10.696;2023-04-01T00:54:03;4.07;;;0.70;;
30571;SDS011;17348;50.948;10.696;2023-04-01T00:57:08;4.85;;;0.60;;
30571;SDS011;17348;50.948;10.696;2023-04-01T01:00:15;5.55;;;0.80;;
30571;SDS011;17348;50.948;10.696;2023-04-01T01:03:18;1.33;;;0.40;;
30571;SDS011;17348;50.948;10.696;2023-04-01T01:06:24;7.35;;;0.70;;
30571;SDS011;17348;50.948;10.696;2023-04-01T01:09:41;2.28;;;0.80;;
30571;SDS011;17348;50.948;10.696;2023-04-01T01:12:51;0.95;;;0.60;;
30571;SDS011;17348;50.948;10.696;2023-04-01T01:16:04;2.42;;;0.70;;
30571;SDS011;17348;50.948;10.696;2023-04-01T01:19:16;3.03;;;1.00;;
30571;SDS011;17348;50.948;10.696;2023-04-01T01:22:36;4.00;;;0.77;;
30571;SDS011;17348;50.948;10.696;2023-04-01T01:25:51;6.57;;;0.88;;
30571;SDS011;17348;50.948;10.696;2023-04-01T01:29:06;3.45;;;0.93;;
30571;SDS011;17348;50.948;10.696;2023-04-01T01:32:23;5.50;;;1.02;;
30571;SDS011;17348;50.948;10.696;2023-04-01T01:35:36;2.25;;;0.70;;
30571;SDS011;17348;50.948;10.696;2023-04-01T01:38:41;5.57;;;0.65;;
30571;SDS011;17348;50.948;10.696;2023-04-01T01:41:44;10.20;;;1.48;;
30571;SDS011;17348;50.948;10.696;2023-04-01T01:44:49;1.58;;;0.70;;
30571;SDS011;17348;50.948;10.696;2023-04-01T01:47:53;3.10;;;0.85;;
30571;SDS011;17348;50.948;10.696;2023-04-01T01:50:59;4.68;;;1.10;;
30571;SDS011;17348;50.948;10.696;2023-04-01T01:54:02;2.03;;;0.70;;
30571;SDS011;17348;50.948;10.696;2023-04-01T01:57:05;1.73;;;0.63;;
30571;SDS011;17348;50.948;10.696;2023-04-01T02:00:10;2.80;;;0.80;;
30571;SDS011;17348;50.948;10.696;2023-04-01T02:03:14;1.35;;;0.57;;
30571;SDS011;17348;50.948;10.696;2023-04-01T02:06:21;1.85;;;0.82;;
30571;SDS011;17348;50.948;10.696;2023-04-01T02:09:25;6.55;;;1.00;;
30571;SDS011;17348;50.948;10.696;2023-04-01T02:12:27;2.58;;;0.70;;
30571;SDS011;17348;50.948;10.696;2023-04-01T02:15:31;3.97;;;0.70;;
30571;SDS011;17348;50.948;10.696;2023-04-01T02:18:39;8.77;;;1.10;;
30571;SDS011;17348;50.948;10.696;2023-04-01T02:21:45;4.07;;;1.00;;
30571;SDS011;17348;50.948;10.696;2023-04-01T02:24:48;3.97;;;1.40;;
30571;SDS011;17348;50.948;10.696;2023-04-01T02:27:52;3.83;;;0.63;;
30571;SDS011;17348;50.948;10.696;2023-04-01T02:30:56;1.35;;;0.90;;
30571;SDS011;17348;50.948;10.696;2023-04-01T02:34:03;4.30;;;0.60;;
30571;SDS011;17348;50.948;10.696;2023-04-01T02:37:07;2.70;;;0.43;;
30571;SDS011;17348;50.948;10.696;2023-04-01T02:40:10;2.78;;;0.70;;
30571;SDS011;17348;50.948;10.696;2023-04-01T02:43:14;4.75;;;0.73;;
30571;SDS011;17348;50.948;10.696;2023-04-01T02:46:16;2.05;;;0.63;;
30571;SDS011;17348;50.948;10.696;2023-04-01T02:49:19;2.85;;;1.10;;
30571;SDS011;17348;50.948;10.696;2023-04-01T02:52:22;3.33;;;0.50;;
30571;SDS011;17348;50.948;10.696;2023-04-01T02:55:25;0.93;;;0.52;;
30571;SDS011;17348;50.948;10.696;2023-04-01T02:58:27;1.77;;;0.35;;
30571;SDS011;17348;50.948;10.696;2023-04-01T03:01:30;5.47;;;0.50;;
30571;SDS011;17348;50.948;10.696;2023-04-01T03:04:32;2.22;;;0.68;;
30571;SDS011;17348;50.948;10.696;2023-04-01T03:07:36;1.65;;;0.70;;
30571;SDS011;17348;50.948;10.696;2023-04-01T03:10:38;1.42;;;0.32;;
30571;SDS011;17348;50.948;10.696;2023-04-01T03:13:40;3.92;;;1.65;;
30571;SDS011;17348;50.948;10.696;2023-04-01T03:16:42;1.45;;;0.70;;
30571;SDS011;17348;50.948;10.696;2023-04-01T03:19:45;3.78;;;0.52;;
30571;SDS011;17348;50.948;10.696;2023-04-01T03:22:48;8.18;;;0.70;;
30571;SDS011;17348;50.948;10.696;2023-04-01T03:25:51;2.13;;;0.50;;
30571;SDS011;17348;50.948;10.696;2023-04-01T03:28:53;3.75;;;0.70;;
30571;SDS011;17348;50.948;10.696;2023-04-01T03:31:56;1.63;;;0.63;;
30571;SDS011;17348;50.948;10.696;2023-04-01T03:34:59;6.15;;;0.68;;
30571;SDS011;17348;50.948;10.696;2023-04-01T03:38:03;1.17;;;0.60;;
30571;SDS011;17348;50.948;10.696;2023-04-01T03:41:05;0.32;;;0.32;;
30571;SDS011;17348;50.948;10.696;2023-04-01T03:44:07;2.33;;;0.60;;
30571;SDS011;17348;50.948;10.696;2023-04-01T03:47:10;2.22;;;0.55;;
30571;SDS011;17348;50.948;10.696;2023-04-01T03:50:12;3.17;;;0.98;;
30571;SDS011;17348;50.948;10.696;2023-04-01T03:53:15;2.80;;;0.65;;
30571;SDS011;17348;50.948;10.696;2023-04-01T03:56:18;4.03;;;0.82;;
30571;SDS011;17348;50.948;10.696;2023-04-01T03:59:21;7.40;;;1.02;;
30571;SDS011;17348;50.948;10.696;2023-04-01T04:02:23;3.00;;;0.88;;
30571;SDS011;17348;50.948;10.696;2023-04-01T04:05:25;2.78;;;0.63;;
30571;SDS011;17348;50.948;10.696;2023-04-01T04:08:30;3.13;;;0.55;;
30571;SDS011;17348;50.948;10.696;2023-04-01T04:11:32;1.33;;;0.50;;
30571;SDS011;17348;50.948;10.696;2023-04-01T04:14:34;1.08;;;0.50;;
30571;SDS011;17348;50.948;10.696;2023-04-01T04:17:37;4.80;;;0.70;;
30571;SDS011;17348;50.948;10.696;2023-04-01T04:20:43;4.93;;;0.75;;
30571;SDS011;17348;50.948;10.696;2023-04-01T04:23:49;1.85;;;0.50;;
30571;SDS011;17348;50.948;10.696;2023-04-01T04:26:52;2.63;;;0.88;;
30571;SDS011;17348;50.948;10.696;2023-04-01T04:29:54;4.68;;;0.70;;
30571;SDS011;17348;50.948;10.696;2023-04-01T04:32:56;6.85;;;0.93;;
30571;SDS011;17348;50.948;10.696;2023-04-01T04:35:59;2.65;;;0.70;;
30571;SDS011;17348;50.948;10.696;2023-04-01T04:39:05;1.65;;;0.70;;
30571;SDS011;17348;50.948;10.696;2023-04-01T04:42:07;4.22;;;0.60;;
30571;SDS011;17348;50.948;10.696;2023-04-01T04:45:10;1.98;;;0.75;;
30571;SDS011;17348;50.948;10.696;2023-04-01T04:48:14;3.92;;;0.50;;
30571;SDS011;17348;50.948;10.696;2023-04-01T04:51:19;5.80;;;0.55;;
30571;SDS011;17348;50.948;10.696;2023-04-01T04:54:23;4.03;;;0.50;;
30571;SDS011;17348;50.948;10.696;2023-04-01T04:57:26;3.15;;;0.80;;
30571;SDS011;17348;50.948;10.696;2023-04-01T05:00:28;7.88;;;1.48;;
30571;SDS011;17348;50.948;10.696;2023-04-01T05:03:31;8.63;;;1.10;;
30571;SDS011;17348;50.948;10.696;2023-04-01T05:06:33;3.15;;;0.60;;
30571;SDS011;17348;50.948;10.696;2023-04-01T05:09:37;1.25;;;0.70;;
30571;SDS011;17348;50.948;10.696;2023-04-01T05:12:39;2.22;;;0.47;;
30571;SDS011;17348;50.948;10.696;2023-04-01T05:15:41;4.43;;;0.50;;
30571;SDS011;17348;50.948;10.696;2023-04-01T05:18:44;0.98;;;0.47;;
30571;SDS011;17348;50.948;10.696;2023-04-01T05:21:46;2.90;;;0.52;;
30571;SDS011;17348;50.948;10.696;2023-04-01T05:24:50;1.25;;;0.43;;
30571;SDS011;17348;50.948;10.696;2023-04-01T05:27:53;1.05;;;0.40;;
30571;SDS011;17348;50.948;10.696;2023-04-01T05:30:57;2.78;;;0.50;;
30571;SDS011;17348;50.948;10.696;2023-04-01T05:34:00;4.15;;;0.95;;
30571;SDS011;17348;50.948;10.696;2023-04-01T05:37:02;4.22;;;0.70;;
30571;SDS011;17348;50.948;10.696;2023-04-01T05:40:07;1.50;;;0.50;;
30571;SDS011;17348;50.948;10.696;2023-04-01T05:43:10;5.05;;;0.70;;
30571;SDS011;17348;50.948;10.696;2023-04-01T05:46:13;5.85;;;0.80;;
30571;SDS011;17348;50.948;10.696;2023-04-01T05:49:15;3.42;;;0.38;;
30571;SDS011;17348;50.948;10.696;2023-04-01T05:52:18;2.40;;;0.43;;
30571;SDS011;17348;50.948;10.696;2023-04-01T05:55:22;4.22;;;0.50;;
30571;SDS011;17348;50.948;10.696;2023-04-01T05:58:24;1.20;;;0.50;;
30571;SDS011;17348;50.948;10.696;2023-04-01T06:01:27;0.85;;;0.43;;
30571;SDS011;17348;50.948;10.696;2023-04-01T06:04:31;3.20;;;0.68;;
30571;SDS011;17348;50.948;10.696;2023-04-01T06:07:39;2.42;;;0.47;;
30571;SDS011;17348;50.948;10.696;2023-04-01T06:10:47;1.20;;;0.50;;
30571;SDS011;17348;50.948;10.696;2023-04-01T06:14:00;1.30;;;0.47;;
30571;SDS011;17348;50.948;10.696;2023-04-01T06:17:18;1.15;;;0.50;;
30571;SDS011;17348;50.948;10.696;2023-04-01T06:20:30;4.07;;;0.60;;
30571;SDS011;17348;50.948;10.696;2023-04-01T06:23:46;1.95;;;0.38;;
30571;SDS011;17348;50.948;10.696;2023-04-01T06:27:01;3.22;;;0.57;;
30571;SDS011;17348;50.948;10.696;2023-04-01T06:30:17;1.85;;;0.75;;
30571;SDS011;17348;50.948;10.696;2023-04-01T06:33:39;2.35;;;0.40;;
30571;SDS011;17348;50.948;10.696;2023-04-01T06:37:00;1.20;;;0.60;;
30571;SDS011;17348;50.948;10.696;2023-04-01T06:40:18;9.75;;;0.73;;
30571;SDS011;17348;50.948;10.696;2023-04-01T06:43:33;3.10;;;0.60;;
30571;SDS011;17348;50.948;10.696;2023-04-01T06:46:45;1.70;;;0.47;;
30571;SDS011;17348;50.948;10.696;2023-04-01T06:49:52;4.32;;;0.55;;
30571;SDS011;17348;50.948;10.696;2023-04-01T06:53:04;3.00;;;0.70;;
30571;SDS011;17348;50.948;10.696;2023-04-01T06:56:13;2.08;;;0.40;;
30571;SDS011;17348;50.948;10.696;2023-04-01T06:59:20;3.67;;;0.60;;
30571;SDS011;17348;50.948;10.696;2023-04-01T07:02:29;2.25;;;0.52;;
30571;SDS011;17348;50.948;10.696;2023-04-01T07:05:37;5.47;;;0.80;;
30571;SDS011;17348;50.948;10.696;2023-04-01T07:08:41;4.60;;;0.75;;
30571;SDS011;17348;50.948;10.696;2023-04-01T07:11:45;3.05;;;0.63;;
30571;SDS011;17348;50.948;10.696;2023-04-01T07:14:49;1.45;;;0.47;;
30571;SDS011;17348;50.948;10.696;2023-04-01T07:17:55;1.10;;;0.30;;
30571;SDS011;17348;50.948;10.696;2023-04-01T07:21:02;2.65;;;0.57;;
30571;SDS011;17348;50.948;10.696;2023-04-01T07:24:06;1.25;;;0.50;;
30571;SDS011;17348;50.948;10.696;2023-04-01T07:27:13;7.03;;;1.70;;
30571;SDS011;17348;50.948;10.696;2023-04-01T07:30:18;2.85;;;0.60;;
30571;SDS011;17348;50.948;10.696;2023-04-01T07:33:24;2.63;;;0.47;;
30571;SDS011;17348;50.948;10.696;2023-04-01T07:36:33;1.70;;;0.57;;
30571;SDS011;17348;50.948;10.696;2023-04-01T07:39:42;2.88;;;0.73;;
30571;SDS011;17348;50.948;10.696;2023-04-01T07:42:57;1.60;;;0.80;;
30571;SDS011;17348;50.948;10.696;2023-04-01T07:46:13;3.22;;;1.25;;
30571;SDS011;17348;50.948;10.696;2023-04-01T07:49:28;5.93;;;1.42;;
30571;SDS011;17348;50.948;10.696;2023-04-01T07:52:40;4.28;;;1.42;;
30571;SDS011;17348;50.948;10.696;2023-04-01T07:55:50;7.32;;;2.08;;
30571;SDS011;17348;50.948;10.696;2023-04-01T07:59:00;8.05;;;2.35;;
30571;SDS011;17348;50.948;10.696;2023-04-01T08:02:14;4.90;;;2.05;;
30571;SDS011;17348;50.948;10.696;2023-04-01T08:05:27;3.17;;;1.25;;
30571;SDS011;17348;50.948;10.696;2023-04-01T08:08:35;2.25;;;0.98;;
30571;SDS011;17348;50.948;10.696;2023-04-01T08:11:49;0.70;;;0.50;;
30571;SDS011;17348;50.948;10.696;2023-04-01T08:15:06;2.15;;;0.52;;
30571;SDS011;17348;50.948;10.696;2023-04-01T08:18:18;1.95;;;0.80;;
30571;SDS011;17348;50.948;10.696;2023-04-01T08:21:32;4.75;;;0.63;;
30571;SDS011;17348;50.948;10.696;2023-04-01T08:24:41;0.85;;;0.30;;
30571;SDS011;17348;50.948;10.696;2023-04-01T08:27:44;1.73;;;0.65;;
30571;SDS011;17348;50.948;10.696;2023-04-01T08:30:50;3.08;;;1.00;;
30571;SDS011;17348;50.948;10.696;2023-04-01T08:33:59;1.60;;;0.63;;
30571;SDS011;17348;50.948;10.696;2023-04-01T08:37:05;0.52;;;0.43;;
30571;SDS011;17348;50.948;10.696;2023-04-01T08:44:04;2.47;;;0.88;;
30571;SDS011;17348;50.948;10.696;2023-04-01T08:47:42;1.10;;;0.82;;
30571;SDS011;17348;50.948;10.696;2023-04-01T08:54:29;5.30;;;1.75;;
30571;SDS011;17348;50.948;10.696;2023-04-01T08:57:50;0.93;;;0.38;;
30571;SDS011;17348;50.948;10.696;2023-04-01T09:01:08;1.80;;;0.80;;
30571;SDS011;17348;50.948;10.696;2023-04-01T09:04:32;1.63;;;0.70;;
30571;SDS011;17348;50.948;10.696;2023-04-01T09:07:53;3.55;;;0.63;;
30571;SDS011;17348;50.948;10.696;2023-04-01T09:11:05;1.65;;;0.60;;
30571;SDS011;17348;50.948;10.696;2023-04-01T09:17:55;0.63;;;0.38;;
30571;SDS011;17348;50.948;10.696;2023-04-01T09:21:31;3.25;;;0.52;;
30571;SDS011;17348;50.948;10.696;2023-04-01T09:24:56;1.13;;;0.50;;
30571;SDS011;17348;50.948;10.696;2023-04-01T09:28:15;1.27;;;0.73;;
30571;SDS011;17348;50.948;10.696;2023-04-01T09:31:25;1.95;;;0.68;;
30571;SDS011;17348;50.948;10.696;2023-04-01T09:34:44;1.05;;;0.57;;
30571;SDS011;17348;50.948;10.696;2023-04-01T09:37:59;0.75;;;0.52;;
30571;SDS011;17348;50.948;10.696;2023-04-01T09:41:17;1.30;;;0.50;;
30571;SDS011;17348;50.948;10.696;2023-04-01T09:44:29;1.10;;;0.40;;
30571;SDS011;17348;50.948;10.696;2023-04-01T09:47:41;1.08;;;0.25;;
30571;SDS011;17348;50.948;10.696;2023-04-01T09:50:56;1.55;;;0.68;;
30571;SDS011;17348;50.948;10.696;2023-04-01T09:54:10;0.98;;;0.47;;
30571;SDS011;17348;50.948;10.696;2023-04-01T10:01:17;0.80;;;0.40;;
30571;SDS011;17348;50.948;10.696;2023-04-01T10:08:33;0.45;;;0.30;;
30571;SDS011;17348;50.948;10.696;2023-04-01T10:12:06;0.40;;;0.40;;
30571;SDS011;17348;50.948;10.696;2023-04-01T10:36:59;1.63;;;0.30;;
30571;SDS011;17348;50.948;10.696;2023-04-01T10:40:18;0.20;;;0.20;;
30571;SDS011;17348;50.948;10.696;2023-04-01T10:43:43;0.28;;;0.28;;
30571;SDS011;17348;50.948;10.696;2023-04-01T10:47:19;1.05;;;0.50;;
30571;SDS011;17348;50.948;10.696;2023-04-01T10:50:57;0.80;;;0.40;;
30571;SDS011;17348;50.948;10.696;2023-04-01T10:54:19;3.92;;;0.50;;
30571;SDS011;17348;50.948;10.696;2023-04-01T11:01:15;1.48;;;0.43;;
30571;SDS011;17348;50.948;10.696;2023-04-01T11:08:38;0.70;;;0.45;;
30571;SDS011;17348;50.948;10.696;2023-04-01T11:15:51;0.20;;;0.20;;
30571;SDS011;17348;50.948;10.696;2023-04-01T11:23:14;2.10;;;0.22;;
30571;SDS011;17348;50.948;10.696;2023-04-01T11:26:32;0.57;;;0.40;;
30571;SDS011;17348;50.948;10.696;2023-04-01T11:33:19;1.65;;;0.55;;
30571;SDS011;17348;50.948;10.696;2023-04-01T11:36:32;1.15;;;0.70;;
30571;SDS011;17348;50.948;10.696;2023-04-01T11:39:43;0.30;;;0.20;;
30571;SDS011;17348;50.948;10.696;2023-04-01T11:42:58;1.67;;;0.70;;
30571;SDS011;17348;50.948;10.696;2023-04-01T11:49:18;0.40;;;0.32;;
30571;SDS011;17348;50.948;10.696;2023-04-01T11:52:34;1.45;;;0.40;;
30571;SDS011;17348;50.948;10.696;2023-04-01T11:56:01;0.50;;;0.30;;
30571;SDS011;17348;50.948;10.696;2023-04-01T11:59:27;0.30;;;0.28;;
30571;SDS011;17348;50.948;10.696;2023-04-01T12:02:43;0.50;;;0.30;;
30571;SDS011;17348;50.948;10.696;2023-04-01T12:06:10;3.70;;;0.95;;
30571;SDS011;17348;50.948;10.696;2023-04-01T12:09:21;1.45;;;0.73;;
30571;SDS011;17348;50.948;10.696;2023-04-01T12:12:32;0.55;;;0.13;;
30571;SDS011;17348;50.948;10.696;2023-04-01T12:15:50;1.60;;;0.50;;
30571;SDS011;17348;50.948;10.696;2023-04-01T12:19:01;0.20;;;0.20;;
30571;SDS011;17348;50.948;10.696;2023-04-01T12:22:19;0.95;;;0.30;;
30571;SDS011;17348;50.948;10.696;2023-04-01T12:25:51;1.35;;;0.57;;
30571;SDS011;17348;50.948;10.696;2023-04-01T12:29:09;0.95;;;0.30;;
30571;SDS011;17348;50.948;10.696;2023-04-01T12:32:25;3.08;;;0.25;;
30571;SDS011;17348;50.948;10.696;2023-04-01T12:35:42;1.33;;;0.60;;
30571;SDS011;17348;50.948;10.696;2023-04-01T12:39:11;0.60;;;0.40;;
30571;SDS011;17348;50.948;10.696;2023-04-01T12:42:30;0.70;;;0.10;;
30571;SDS011;17348;50.948;10.696;2023-04-01T12:45:53;0.17;;;0.10;;
30571;SDS011;17348;50.948;10.696;2023-04-01T12:49:12;0.57;;;0.50;;
30571;SDS011;17348;50.948;10.696;2023-04-01T12:52:33;1.90;;;0.20;;
30571;SDS011;17348;50.948;10.696;2023-04-01T12:55:44;0.43;;;0.22;;
30571;SDS011;17348;50.948;10.696;2023-04-01T12:58:57;1.73;;;0.95;;
30571;SDS011;17348;50.948;10.696;2023-04-01T13:02:17;0.75;;;0.20;;
30571;SDS011;17348;50.948;10.696;2023-04-01T13:09:07;0.85;;;0.50;;
30571;SDS011;17348;50.948;10.696;2023-04-01T13:12:28;0.90;;;0.43;;
30571;SDS011;17348;50.948;10.696;2023-04-01T13:15:43;1.35;;;0.50;;
30571;SDS011;17348;50.948;10.696;2023-04-01T13:18:52;0.75;;;0.55;;
30571;SDS011;17348;50.948;10.696;2023-04-01T13:22:02;0.45;;;0.25;;
30571;SDS011;17348;50.948;10.696;2023-04-01T13:25:14;0.45;;;0.30;;
30571;SDS011;17348;50.948;10.696;2023-04-01T13:28:28;1.05;;;0.52;;
30571;SDS011;17348;50.948;10.696;2023-04-01T13:31:38;0.55;;;0.45;;
30571;SDS011;17348;50.948;10.696;2023-04-01T13:34:54;0.52;;;0.22;;
30571;SDS011;17348;50.948;10.696;2023-04-01T13:38:13;0.13;;;0.13;;
30571;SDS011;17348;50.948;10.696;2023-04-01T13:41:28;0.63;;;0.52;;
30571;SDS011;17348;50.948;10.696;2023-04-01T13:44:46;0.40;;;0.32;;
30571;SDS011;17348;50.948;10.696;2023-04-01T13:51:40;1.05;;;0.35;;
30571;SDS011;17348;50.948;10.696;2023-04-01T13:58:38;2.25;;;0.70;;
30571;SDS011;17348;50.948;10.696;2023-04-01T14:01:56;1.20;;;0.50;;
30571;SDS011;17348;50.948;10.696;2023-04-01T14:05:09;1.83;;;0.55;;
30571;SDS011;17348;50.948;10.696;2023-04-01T14:08:33;0.45;;;0.32;;
30571;SDS011;17348;50.948;10.696;2023-04-01T14:11:50;1.02;;;0.52;;
30571;SDS011;17348;50.948;10.696;2023-04-01T14:15:03;2.10;;;1.10;;
30571;SDS011;17348;50.948;10.696;2023-04-01T14:18:27;0.22;;;0.22;;
30571;SDS011;17348;50.948;10.696;2023-04-01T14:21:47;0.40;;;0.20;;
30571;SDS011;17348;50.948;10.696;2023-04-01T14:28:36;0.50;;;0.32;;
30571;SDS011;17348;50.948;10.696;2023-04-01T14:31:48;1.25;;;0.20;;
30571;SDS011;17348;50.948;10.696;2023-04-01T14:35:16;1.73;;;0.28;;
30571;SDS011;17348;50.948;10.696;2023-04-01T14:38:39;1.95;;;0.38;;
30571;SDS011;17348;50.948;10.696;2023-04-01T14:41:51;1.05;;;0.30;;
30571;SDS011;17348;50.948;10.696;2023-04-01T14:45:12;0.88;;;0.50;;
30571;SDS011;17348;50.948;10.696;2023-04-01T14:48:35;0.38;;;0.38;;
30571;SDS011;17348;50.948;10.696;2023-04-01T14:51:42;0.60;;;0.38;;
30571;SDS011;17348;50.948;10.696;2023-04-01T14:54:46;0.55;;;0.20;;
30571;SDS011;17348;50.948;10.696;2023-04-01T14:58:04;0.60;;;0.32;;
30571;SDS011;17348;50.948;10.696;2023-04-01T15:01:21;1.45;;;0.60;;
30571;SDS011;17348;50.948;10.696;2023-04-01T15:04:41;0.63;;;0.40;;
30571;SDS011;17348;50.948;10.696;2023-04-01T15:07:58;0.50;;;0.30;;
30571;SDS011;17348;50.948;10.696;2023-04-01T15:11:23;0.45;;;0.20;;
30571;SDS011;17348;50.948;10.696;2023-04-01T15:14:36;0.63;;;0.30;;
30571;SDS011;17348;50.948;10.696;2023-04-01T15:17:55;0.10;;;0.10;;
30571;SDS011;17348;50.948;10.696;2023-04-01T15:21:10;0.43;;;0.20;;
30571;SDS011;17348;50.948;10.696;2023-04-01T15:24:22;3.35;;;0.70;;
30571;SDS011;17348;50.948;10.696;2023-04-01T15:27:29;0.68;;;0.20;;
30571;SDS011;17348;50.948;10.696;2023-04-01T15:30:45;1.63;;;0.68;;
30571;SDS011;17348;50.948;10.696;2023-04-01T15:34:07;0.20;;;0.20;;
30571;SDS011;17348;50.948;10.696;2023-04-01T15:37:26;0.20;;;0.13;;
30571;SDS011;17348;50.948;10.696;2023-04-01T15:40:38;1.13;;;0.30;;
30571;SDS011;17348;50.948;10.696;2023-04-01T15:43:49;1.50;;;0.77;;
30571;SDS011;17348;50.948;10.696;2023-04-01T15:46:52;3.00;;;1.38;;
30571;SDS011;17348;50.948;10.696;2023-04-01T15:49:57;4.45;;;2.10;;
30571;SDS011;17348;50.948;10.696;2023-04-01T15:53:23;1.15;;;0.75;;
30571;SDS011;17348;50.948;10.696;2023-04-01T16:00:18;5.22;;;1.67;;
30571;SDS011;17348;50.948;10.696;2023-04-01T16:03:31;9.30;;;4.28;;
30571;SDS011;17348;50.948;10.696;2023-04-01T16:06:45;4.85;;;2.50;;
30571;SDS011;17348;50.948;10.696;2023-04-01T16:10:07;4.18;;;2.38;;
30571;SDS011;17348;50.948;10.696;2023-04-01T16:13:23;4.45;;;2.97;;
30571;SDS011;17348;50.948;10.696;2023-04-01T16:16:36;1.38;;;0.93;;
30571;SDS011;17348;50.948;10.696;2023-04-01T16:19:51;6.90;;;2.22;;
30571;SDS011;17348;50.948;10.696;2023-04-01T16:22:58;8.00;;;3.00;;
30571;SDS011;17348;50.948;10.696;2023-04-01T16:26:07;6.35;;;2.17;;
30571;SDS011;17348;50.948;10.696;2023-04-01T16:29:19;6.85;;;2.58;;
30571;SDS011;17348;50.948;10.696;2023-04-01T16:32:34;6.10;;;2.80;;
30571;SDS011;17348;50.948;10.696;2023-04-01T16:35:43;3.63;;;1.20;;
30571;SDS011;17348;50.948;10.696;2023-04-01T16:38:52;3.35;;;0.90;;
30571;SDS011;17348;50.948;10.696;2023-04-01T16:42:14;1.38;;;0.70;;
30571;SDS011;17348;50.948;10.696;2023-04-01T16:45:29;1.75;;;1.30;;
30571;SDS011;17348;50.948;10.696;2023-04-01T16:48:42;3.90;;;1.90;;
30571;SDS011;17348;50.948;10.696;2023-04-01T16:51:54;2.10;;;1.25;;
30571;SDS011;17348;50.948;10.696;2023-04-01T16:55:12;1.60;;;0.90;;
30571;SDS011;17348;50.948;10.696;2023-04-01T16:58:20;3.90;;;1.52;;
30571;SDS011;17348;50.948;10.696;2023-04-01T17:01:29;4.57;;;1.85;;
30571;SDS011;17348;50.948;10.696;2023-04-01T17:04:41;5.80;;;1.60;;
30571;SDS011;17348;50.948;10.696;2023-04-01T17:07:47;2.63;;;1.23;;
30571;SDS011;17348;50.948;10.696;2023-04-01T17:11:02;3.40;;;1.33;;
30571;SDS011;17348;50.948;10.696;2023-04-01T17:14:14;3.85;;;1.40;;
30571;SDS011;17348;50.948;10.696;2023-04-01T17:17:31;4.80;;;2.30;;
30571;SDS011;17348;50.948;10.696;2023-04-01T17:20:46;5.70;;;2.47;;
30571;SDS011;17348;50.948;10.696;2023-04-01T17:24:00;5.30;;;2.78;;
30571;SDS011;17348;50.948;10.696;2023-04-01T17:27:14;4.18;;;2.33;;
30571;SDS011;17348;50.948;10.696;2023-04-01T17:30:28;5.68;;;2.92;;
30571;SDS011;17348;50.948;10.696;2023-04-01T17:37:20;6.03;;;3.10;;
30571;SDS011;17348;50.948;10.696;2023-04-01T17:40:35;5.65;;;2.70;;
30571;SDS011;17348;50.948;10.696;2023-04-01T17:43:47;6.47;;;2.25;;
30571;SDS011;17348;50.948;10.696;2023-04-01T17:47:03;3.22;;;1.48;;
30571;SDS011;17348;50.948;10.696;2023-04-01T17:50:25;4.60;;;1.85;;
30571;SDS011;17348;50.948;10.696;2023-04-01T17:53:40;2.90;;;1.58;;
30571;SDS011;17348;50.948;10.696;2023-04-01T17:56:49;4.57;;;2.63;;
30571;SDS011;17348;50.948;10.696;2023-04-01T18:00:14;4.00;;;1.95;;
30571;SDS011;17348;50.948;10.696;2023-04-01T18:03:22;3.20;;;1.65;;
30571;SDS011;17348;50.948;10.696;2023-04-01T18:06:35;4.45;;;2.15;;
30571;SDS011;17348;50.948;10.696;2023-04-01T18:09:45;1.98;;;1.10;;
30571;SDS011;17348;50.948;10.696;2023-04-01T18:19:53;4.85;;;1.10;;
30571;SDS011;17348;50.948;10.696;2023-04-01T18:23:14;2.35;;;1.42;;
30571;SDS011;17348;50.948;10.696;2023-04-01T18:26:26;20.17;;;5.60;;
30571;SDS011;17348;50.948;10.696;2023-04-01T18:29:35;6.63;;;2.75;;
30571;SDS011;17348;50.948;10.696;2023-04-01T18:32:44;28.13;;;8.52;;
30571;SDS011;17348;50.948;10.696;2023-04-01T18:35:52;11.90;;;4.40;;
30571;SDS011;17348;50.948;10.696;2023-04-01T18:39:02;2.65;;;1.27;;
30571;SDS011;17348;50.948;10.696;2023-04-01T18:42:14;3.88;;;1.92;;
30571;SDS011;17348;50.948;10.696;2023-04-01T18:45:26;1.80;;;1.17;;
30571;SDS011;17348;50.948;10.696;2023-04-01T18:48:35;2.45;;;1.30;;
30571;SDS011;17348;50.948;10.696;2023-04-01T18:51:45;3.92;;;2.25;;
30571;SDS011;17348;50.948;10.696;2023-04-01T18:54:55;5.75;;;1.80;;
30571;SDS011;17348;50.948;10.696;2023-04-01T18:58:24;4.00;;;1.10;;
30571;SDS011;17348;50.948;10.696;2023-04-01T19:01:33;2.53;;;1.13;;
30571;SDS011;17348;50.948;10.696;2023-04-01T19:04:40;4.45;;;2.15;;
30571;SDS011;17348;50.948;10.696;2023-04-01T19:07:46;5.22;;;2.53;;
30571;SDS011;17348;50.948;10.696;2023-04-01T19:10:55;8.63;;;3.17;;
30571;SDS011;17348;50.948;10.696;2023-04-01T19:14:11;5.85;;;2.70;;
30571;SDS011;17348;50.948;10.696;2023-04-01T19:17:22;10.07;;;3.80;;
30571;SDS011;17348;50.948;10.696;2023-04-01T19:20:36;7.22;;;3.92;;
30571;SDS011;17348;50.948;10.696;2023-04-01T19:23:53;8.93;;;4.95;;
30571;SDS011;17348;50.948;10.696;2023-04-01T19:27:13;6.40;;;3.33;;
30571;SDS011;17348;50.948;10.696;2023-04-01T19:30:31;8.73;;;3.38;;
30571;SDS011;17348;50.948;10.696;2023-04-01T19:33:44;5.93;;;3.50;;
30571;SDS011;17348;50.948;10.696;2023-04-01T19:36:54;10.68;;;5.65;;
30571;SDS011;17348;50.948;10.696;2023-04-01T19:40:04;8.20;;;4.93;;
30571;SDS011;17348;50.948;10.696;2023-04-01T19:43:35;8.80;;;4.95;;
30571;SDS011;17348;50.948;10.696;2023-04-01T19:46:49;10.95;;;6.13;;
30571;SDS011;17348;50.948;10.696;2023-04-01T19:49:59;8.30;;;4.88;;
30571;SDS011;17348;50.948;10.696;2023-04-01T19:53:12;10.38;;;5.22;;
30571;SDS011;17348;50.948;10.696;2023-04-01T19:56:21;9.27;;;5.18;;
30571;SDS011;17348;50.948;10.696;2023-04-01T19:59:29;8.60;;;4.47;;
30571;SDS011;17348;50.948;10.696;2023-04-01T20:02:38;9.80;;;4.55;;
30571;SDS011;17348;50.948;10.696;2023-04-01T20:05:49;6.15;;;3.33;;
30571;SDS011;17348;50.948;10.696;2023-04-01T20:08:59;6.18;;;2.92;;
30571;SDS011;17348;50.948;10.696;2023-04-01T20:12:13;4.32;;;2.85;;
30571;SDS011;17348;50.948;10.696;2023-04-01T20:15:29;4.45;;;2.78;;
30571;SDS011;17348;50.948;10.696;2023-04-01T20:18:39;4.30;;;2.20;;
30571;SDS011;17348;50.948;10.696;2023-04-01T20:21:47;4.68;;;1.95;;
30571;SDS011;17348;50.948;10.696;2023-04-01T20:24:51;4.55;;;2.85;;